30 de setembro de 2022

Hora Código Clima Temp. Visibilidade Tecto Vento METAR/SPECI
17:00
V
19 °C 10 km+ - 300° 300° 16 kt METAR LFMP 301500Z AUTO 30016KT 280V350 9999 FEW049 19/07 Q1013 BECMG 30020G37KT
16:30
V
19 °C 10 km+ - 300° 300° 18 kt METAR LFMP 301430Z AUTO 30018KT 9999 FEW049 19/07 Q1013 BECMG 30020G37KT
16:00
V
19 °C 10 km+ - 310° 310° 18 kt METAR LFMP 301400Z AUTO 31018KT 9999 FEW049 SCT068 19/07 Q1013 TEMPO 32025G40KT
15:30
V
18 °C 10 km+ - 300° 300° 17 - 29 kt METAR LFMP 301330Z AUTO 30017G29KT 9999 FEW048 18/08 Q1013 TEMPO 32025G40KT
15:00
V
18 °C 10 km+ - 310° 310° 16 kt METAR LFMP 301300Z AUTO 31016KT 9999 SCT046 SCT058 18/08 Q1013 TEMPO 32025G40KT
14:30
V
19 °C 10 km+ 21.000 ft 290° 290° 22 kt METAR LFMP 301230Z AUTO 29022KT 9999 SCT046 SCT052 BKN210 19/08 Q1012 TEMPO 32025G40KT
14:00
V
18 °C 10 km+ - 300° 300° 19 kt METAR LFMP 301200Z AUTO 30019KT 9999 FEW001 SCT044 18/08 Q1012 TEMPO 32025G40KT
13:30
V
18 °C 10 km+ - 310° 310° 18 kt METAR LFMP 301130Z AUTO 31018KT 9999 FEW042 18/07 Q1012 TEMPO 32025G40KT
13:00
V
18 °C 10 km+ - 310° 310° 21 kt METAR LFMP 301100Z AUTO 31021KT CAVOK 18/07 Q1012 BECMG 32020G35KT
12:30
V
17 °C 10 km+ - 310° 310° 20 - 31 kt METAR LFMP 301030Z AUTO 31020G31KT 9999 FEW040 17/08 Q1011 NOSIG
12:00
V
17 °C 10 km+ 19.000 ft 290° 290° 20 kt METAR LFMP 301000Z AUTO 29020KT 9999 SCT039/// SCT100/// BKN190/// //////TCU 17/08 Q1012 BECMG 32020G35KT FEW040 BKN070
11:30
V
17 °C 10 km+ 10.000 ft 300° 300° 17 kt METAR LFMP 300930Z AUTO 30017KT 9999 FEW037 BKN100 BKN120 17/08 Q1012 BECMG 32020G35KT
11:00
V
15 °C 10 km+ 9.400 ft 300° 300° 17 kt METAR LFMP 300900Z AUTO 30017KT 9999 BKN094 15/08 Q1012 BECMG 32020G35KT
10:30
V
15 °C 10 km+ 7.000 ft 300° 300° 14 kt METAR LFMP 300830Z AUTO 30014KT 270V330 9999 -RA FEW039 BKN070 BKN090 15/09 Q1011 BECMG 32020G35KT
10:00
V
16 °C 10 km+ 9.400 ft 300° 300° 19 - 29 kt METAR LFMP 300800Z AUTO 30019G29KT 9999 FEW040/// SCT072/// BKN094/// ///TCU 16/08 Q1011 BECMG FEW030 BKN120
09:30
V
15 °C 10 km+ - 310° 310° 13 kt METAR LFMP 300730Z AUTO 31013KT 9999 FEW070/// //////TCU 15/07 Q1010 BECMG 32015G25KT FEW030 BKN120
09:00
V
14 °C 10 km+ - 300° 300° 11 kt METAR LFMP 300700Z AUTO 30011KT 9999 FEW100 14/08 Q1010 BECMG 32015G25KT
08:30
V
14 °C 10 km+ - 290° 290° 12 kt METAR LFMP 300630Z AUTO 29012KT 9999 SCT100 14/08 Q1009 BECMG 32015G25KT
08:00
V
14 °C 10 km+ - 300° 300° 13 kt METAR LFMP 300600Z AUTO 30013KT CAVOK 14/08 Q1009 BECMG 32015G25KT
07:30
V
14 °C 10 km+ - 300° 300° 12 kt METAR LFMP 300530Z AUTO 30012KT 9999 FEW036 14/08 Q1008 BECMG 32015G25KT
07:00
V
13 °C 10 km+ - 270° 270° 7 kt METAR LFMP 300500Z AUTO 27007KT 240V300 9999 FEW037 13/08 Q1008 BECMG 32015G25KT
06:30
V
14 °C 10 km+ - 290° 290° 9 kt METAR LFMP 300430Z AUTO 29009KT 9999 FEW034 14/08 Q1008 BECMG 32015G25KT
06:00
V
14 °C 10 km+ 15.000 ft 290° 290° 7 kt METAR LFMP 300400Z AUTO 29007KT 250V010 9999 FEW037 BKN150 14/08 Q1007 BECMG 32015G25KT
05:30
V
15 °C 10 km+ 15.000 ft 310° 310° 10 kt METAR LFMP 300330Z AUTO 31010KT 280V340 9999 FEW039 BKN150 BKN170 15/08 Q1007 BECMG 32015G25KT
05:00
V
14 °C 10 km+ 19.000 ft 280° 280° 9 kt METAR LFMP 300300Z AUTO 28009KT 9999 FEW033 SCT170 BKN190 14/09 Q1007 BECMG 32015G25KT
04:30
V
15 °C 10 km+ - 300° 300° 11 kt METAR LFMP 300230Z AUTO 30011KT 260V330 CAVOK 15/09 Q1007
04:00
V
15 °C 10 km+ - 290° 290° 10 kt METAR LFMP 300200Z AUTO 29010KT 260V320 CAVOK 15/09 Q1006
03:30
V
15 °C 10 km+ - 290° 290° 12 kt METAR LFMP 300130Z AUTO 29012KT CAVOK 15/09 Q1006
03:00
V
14 °C 10 km+ - 300° 300° 9 kt METAR LFMP 300100Z AUTO 30009KT CAVOK 14/09 Q1006
02:30
V
14 °C 10 km+ 11.000 ft 290° 290° 9 kt METAR LFMP 300030Z AUTO 29009KT 9999 FEW035 BKN110 OVC120 14/09 Q1006
02:00
V
15 °C 10 km+ 10.000 ft 300° 300° 9 kt METAR LFMP 300000Z AUTO 30009KT 270V330 9999 OVC100 15/09 Q1006
01:30
V
15 °C 10 km+ 10.000 ft 310° 310° 10 kt METAR LFMP 292330Z AUTO 31010KT 9999 BKN100 BKN120 15/09 Q1006
01:00
V
15 °C 10 km+ 9.800 ft 300° 300° 10 kt METAR LFMP 292300Z AUTO 30010KT 9999 FEW052 OVC098 15/09 Q1006
00:30
V
15 °C 10 km+ 8.800 ft 300° 300° 9 kt METAR LFMP 292230Z AUTO 30009KT 9999 FEW066 BKN088 OVC110 15/09 Q1006
00:00
V
15 °C 10 km+ 7.800 ft 290° 290° 9 kt METAR LFMP 292200Z AUTO 29009KT 9999 OVC078 15/10 Q1006 TEMPO SCT040CB BKN060 BECMG 32015G25KT

29 de setembro de 2022

Hora Código Clima Temp. Visibilidade Tecto Vento METAR/SPECI
23:30
V
14 °C 10 km+ 7.800 ft 270° 270° 5 kt METAR LFMP 292130Z AUTO 27005KT 220V290 9999 -RA BKN078 OVC090 14/11 Q1006 TEMPO SCT040CB BKN060 BECMG 32015G25KT
23:00
V
14 °C 10 km+ 8.000 ft 290° 290° 8 kt METAR LFMP 292100Z AUTO 29008KT 9999 -RA BKN080 OVC098 14/11 Q1006 TEMPO SCT040CB BKN060 BECMG 32015G25KT
22:30
V
15 °C 10 km+ 7.800 ft 310° 310° 8 kt METAR LFMP 292030Z AUTO 31008KT 9999 -RA FEW064/// BKN078/// OVC094/// ///TCU 15/11 Q1005 TEMPO SCT040CB BKN060 BECMG 32015G25KT
22:00
V
16 °C 10 km+ 5.800 ft 300° 300° 5 kt METAR LFMP 292000Z AUTO 30005KT 270V340 9999 -RA FEW048 BKN058 BKN074 16/10 Q1005 TEMPO SCT040CB BKN060 BECMG 32015G25KT
21:30
V
16 °C 10 km+ 5.000 ft 320° 320° 9 kt METAR LFMP 291930Z AUTO 32009KT 9999 BKN050 BKN064 BKN076 16/10 Q1004 TEMPO SCT040CB BKN060 BECMG 32015G25KT
21:00
V
15 °C 10 km+ 9.200 ft 250° 250° 6 kt METAR LFMP 291900Z AUTO 25006KT 9999 FEW049/// BKN092/// OVC160/// ///CB 15/12 Q1004 BECMG 32015G25KT
20:30
V
15 °C 10 km+ 7.800 ft 230° 230° 6 kt METAR LFMP 291830Z AUTO 23006KT 9999 OVC078/// //////CB 15/13 Q1004 BECMG 32015G25KT
20:00
V
15 °C 10 km+ 7.000 ft 220° 220° 9 kt METAR LFMP 291800Z AUTO 22009KT 190V250 9999 SCT052/// OVC070/// //////CB 15/13 Q1004 BECMG 32015G25KT
19:30
V
15 °C 10 km+ 7.400 ft 220° 220° 9 kt METAR LFMP 291730Z AUTO 22009KT 9999 FEW058/// OVC074/// //////CB 15/12 Q1003 BECMG 32015G25KT
19:00
V
16 °C 10 km+ 7.200 ft 210° 210° 7 kt METAR LFMP 291700Z AUTO 21007KT 190V250 9999 SCT056/// OVC072/// ///CB 16/12 Q1003 BECMG 32015G25KT
18:30
V
16 °C 10 km+ 5.200 ft 200° 200° 7 kt METAR LFMP 291630Z AUTO 20007KT 9999 BKN052/// BKN064/// //////CB 16/12 Q1003 BECMG 32015G25KT
18:00
V
17 °C 10 km+ 6.000 ft 200° 200° 9 kt METAR LFMP 291600Z AUTO 20009KT 170V230 9999 -RA OVC060/// //////CB 17/12 Q1003 BECMG 32015G25KT
17:30
V
17 °C 10 km+ 5.800 ft 190° 190° 8 kt METAR LFMP 291530Z AUTO 19008KT 160V220 9999 BKN058/// BKN090/// //////TCU 17/11 Q1002 TEMPO SCT040CB BKN060 BECMG 32015G25KT
17:00
V
18 °C 10 km+ 7.800 ft 180° 180° 10 kt METAR LFMP 291500Z AUTO 18010KT 120V210 9999 SCT062/// BKN078/// BKN088/// ///TCU 18/11 Q1002 TEMPO SCT040CB BKN060 BECMG 32015G25KT
16:30
V
20 °C 10 km+ 8.200 ft 320° 320° 6 - 17 kt METAR LFMP 291430Z AUTO 32006G17KT 260V050 9999 FEW034/// SCT070/// BKN082/// //////CB 20/08 Q1002 NOSIG
16:00
V
20 °C 10 km+ 10.000 ft 350° 350° 10 kt METAR LFMP 291400Z AUTO 35010KT 310V020 9999 FEW038/// SCT082/// BKN100/// //////CB 20/09 Q1002 TEMPO BKN090 BECMG 31015G25KT
15:30
V
20 °C 10 km+ 8.800 ft 330° 330° 12 kt METAR LFMP 291330Z AUTO 33012KT 9999 FEW076/// BKN088/// ///TCU 20/08 Q1002 TEMPO SCT040CB BKN060 BECMG 31015G25KT
15:00
V
21 °C 10 km+ 9.000 ft 330° 330° 14 kt METAR LFMP 291300Z AUTO 33014KT 290V350 9999 BKN090/// //////TCU 21/09 Q1002 BECMG 31015G25KT BKN090
14:30
V
21 °C 10 km+ 11.000 ft 310° 310° 12 kt METAR LFMP 291230Z AUTO 31012KT 280V350 9999 FEW052 SCT082 BKN110 21/09 Q1002 BECMG 31015G25KT
14:00
V
21 °C 10 km+ 11.000 ft 330° 330° 12 kt METAR LFMP 291200Z AUTO 33012KT 300V360 9999 FEW018/// BKN110/// //////CB 21/09 Q1002 BECMG 31015G25KT BKN090
13:30
V
20 °C 10 km+ - 320° 320° 14 kt METAR LFMP 291130Z AUTO 32014KT 9999 FEW098 20/09 Q1002 BECMG 31015G25KT
13:00
V
20 °C 10 km+ 9.400 ft 330° 330° 17 kt METAR LFMP 291100Z AUTO 33017KT 9999 BKN094 BKN110 20/08 Q1002 BECMG 31015G25KT
12:30
V
20 °C 10 km+ 10.000 ft 300° 300° 19 kt METAR LFMP 291030Z AUTO 30019KT 9999 SCT086 BKN100 20/08 Q1003 BECMG 31015G25KT
12:00
V
20 °C 10 km+ - 300° 300° 17 kt METAR LFMP 291000Z AUTO 30017KT 9999 FEW086 SCT120 20/08 Q1002 BECMG 31015G25KT
11:30
V
20 °C 10 km+ - 310° 310° 12 kt METAR LFMP 290930Z AUTO 31012KT 280V340 9999 FEW084 20/08 Q1003 BECMG 31015G25KT
11:00
V
20 °C 10 km+ - 300° 300° 10 - 21 kt METAR LFMP 290900Z AUTO 30010G21KT 270V340 CAVOK 20/08 Q1002 NOSIG
10:30
V
19 °C 10 km+ 16.000 ft 300° 300° 12 kt METAR LFMP 290830Z AUTO 30012KT 9999 FEW088 SCT130 BKN160 19/08 Q1002 BECMG 31015G25KT
10:00
V
19 °C 10 km+ 18.000 ft 310° 310° 14 - 25 kt METAR LFMP 290800Z AUTO 31014G25KT 270V340 9999 FEW098 BKN180 19/08 Q1002 NOSIG
09:30
V
19 °C 10 km+ - 300° 300° 11 kt METAR LFMP 290730Z AUTO 30011KT 260V330 9999 FEW094 19/08 Q1002 BECMG 31015G29KT
09:00
V
18 °C 10 km+ 13.000 ft 290° 290° 14 kt METAR LFMP 290700Z AUTO 29014KT 9999 FEW064 SCT096 BKN130 18/08 Q1002 BECMG 31015G29KT
08:30
V
18 °C 10 km+ 6.400 ft 300° 300° 11 kt METAR LFMP 290630Z AUTO 30011KT 9999 BKN064 BKN092 BKN110 18/08 Q1002 BECMG 31015G29KT
08:00
V
17 °C 10 km+ - 290° 290° 10 kt METAR LFMP 290600Z AUTO 29010KT 9999 FEW074 SCT120 17/08 Q1002 BECMG 31015G29KT
07:30
V
18 °C 10 km+ 13.000 ft 300° 300° 9 kt METAR LFMP 290530Z AUTO 30009KT 270V330 9999 FEW072 BKN130 BKN150 18/09 Q1002 BECMG 31015G29KT
07:00
V
18 °C 10 km+ 13.000 ft 300° 300° 12 kt METAR LFMP 290500Z AUTO 30012KT 9999 FEW076 BKN130 BKN180 18/09 Q1003 BECMG 31015G29KT
06:30
V
18 °C 10 km+ 7.400 ft 300° 300° 12 kt METAR LFMP 290430Z AUTO 30012KT 9999 BKN074 BKN130 BKN180 18/09 Q1003 BECMG 31015G29KT
06:00
V
18 °C 10 km+ - 290° 290° 10 kt METAR LFMP 290400Z AUTO 29010KT 250V320 CAVOK 18/09 Q1003 BECMG 31015G29KT
05:30
V
18 °C 10 km+ - 300° 300° 11 kt METAR LFMP 290330Z AUTO 30011KT CAVOK 18/09 Q1003 BECMG 31015G29KT
05:00
V
18 °C 10 km+ - 290° 290° 12 - 26 kt METAR LFMP 290300Z AUTO 29012G26KT CAVOK 18/09 Q1004 NOSIG
04:30
V
18 °C 10 km+ 13.000 ft 280° 280° 10 kt METAR LFMP 290230Z AUTO 28010KT 250V310 9999 FEW001 BKN130 BKN180 18/09 Q1004
04:00
V
18 °C 10 km+ - 290° 290° 16 kt METAR LFMP 290200Z AUTO 29016KT CAVOK 18/09 Q1004
03:30
V
19 °C 10 km+ - 290° 290° 16 kt METAR LFMP 290130Z AUTO 29016KT CAVOK 19/09 Q1004
03:00
V
19 °C 10 km+ 14.000 ft 300° 300° 17 kt METAR LFMP 290100Z AUTO 30017KT 260V320 9999 SCT100 BKN140 OVC190 19/09 Q1004
02:30
V
19 °C 10 km+ 12.000 ft 300° 300° 14 kt METAR LFMP 290030Z AUTO 30014KT 270V330 9999 FEW100 BKN120 OVC190 19/10 Q1005
02:00
V
19 °C 10 km+ - 300° 300° 12 kt METAR LFMP 290000Z AUTO 30012KT CAVOK 19/09 Q1005
01:30
V
18 °C 10 km+ - 300° 300° 14 kt METAR LFMP 282330Z AUTO 30014KT CAVOK 18/10 Q1005
01:00
V
19 °C 10 km+ - 290° 290° 15 kt METAR LFMP 282300Z AUTO 29015KT 9999 FEW001 SCT220 19/09 Q1006
00:30
V
19 °C 10 km+ - 290° 290° 18 kt METAR LFMP 282230Z AUTO 29018KT CAVOK 19/10 Q1006
00:00
V
19 °C 10 km+ - 290° 290° 26 - 36 kt METAR LFMP 282200Z AUTO 29026G36KT CAVOK 19/09 Q1006

28 de setembro de 2022

Hora Código Clima Temp. Visibilidade Tecto Vento METAR/SPECI
23:30
V
19 °C 10 km+ - 290° 290° 24 - 38 kt METAR LFMP 282130Z AUTO 29024G38KT 260V320 CAVOK 19/09 Q1006 BECMG 28014KT
23:00
V
19 °C 10 km+ - 290° 290° 19 - 31 kt METAR LFMP 282100Z AUTO 29019G31KT CAVOK 19/09 Q1005 BECMG 28014KT
22:30
V
19 °C 10 km+ - 290° 290° 18 - 29 kt METAR LFMP 282030Z AUTO 29018G29KT CAVOK 19/09 Q1005 BECMG 28014KT
22:00
V
19 °C 10 km+ - 290° 290° 17 - 29 kt METAR LFMP 282000Z AUTO 29017G29KT CAVOK 19/09 Q1005 TEMPO 30030G45KT
21:30
V
19 °C 10 km+ - 300° 300° 28 - 45 kt METAR LFMP 281930Z AUTO 30028G45KT CAVOK 19/09 Q1005 NOSIG
21:00
V
19 °C 10 km+ - 290° 290° 25 kt METAR LFMP 281900Z AUTO 29025KT 9999 FEW100 19/10 Q1005 TEMPO 30030G45KT FEW040CB
20:30
V
19 °C 10 km+ - 300° 300° 27 - 43 kt METAR LFMP 281830Z AUTO 30027G43KT 9999 FEW098 19/10 Q1005 BECMG 28010KT
20:00
V
20 °C 10 km+ 10.000 ft 290° 290° 26 - 41 kt METAR LFMP 281800Z AUTO 29026G41KT 9999 FEW078/// BKN100/// BKN130/// //////TCU 20/11 Q1005 BECMG 30015G25KT FEW050 SCT100
19:30
V
21 °C 10 km+ 10.000 ft 300° 300° 15 - 30 kt METAR LFMP 281730Z AUTO 30015G30KT 270V330 9999 FEW041 SCT068 BKN100 21/12 Q1005 NOSIG
19:00
V
22 °C 10 km+ - 290° 290° 17 - 30 kt METAR LFMP 281700Z AUTO 29017G30KT 9999 FEW001 SCT100 22/12 Q1005 NOSIG
18:30
V
22 °C 10 km+ - 290° 290° 14 - 24 kt METAR LFMP 281630Z AUTO 29014G24KT 250V320 CAVOK 22/12 Q1005 TEMPO 31020G35KT
18:00
V
23 °C 10 km+ - 290° 290° 18 - 33 kt METAR LFMP 281600Z AUTO 29018G33KT 260V320 9999 FEW086 SCT110 23/12 Q1004 TEMPO 31030G45KT FEW040CB
17:30
V
24 °C 10 km+ - 300° 300° 19 - 30 kt METAR LFMP 281530Z AUTO 30019G30KT 280V340 CAVOK 24/11 Q1004 TEMPO 31030G45KT FEW040CB
17:00
V
24 °C 10 km+ - 300° 300° 21 - 37 kt METAR LFMP 281500Z AUTO 30021G37KT 270V330 9999 FEW062 24/11 Q1004 TEMPO FEW040CB
Dados mais antigos

Nós e terceiros acompanhamos seu comportamento na internet em nosso site com cookies. Se você continuar, nós assumimos que você concorda com nossa política de cookies. Saiba mais